sensor_id;sensor_type;location;lat;lon;timestamp;pressure;altitude;pressure_sealevel;temperature;humidity
55424;BME280;41294;42.666;23.350;2023-06-04T00:02:07;95062.25;;;16.86;100.00
55424;BME280;41294;42.666;23.350;2023-06-04T00:04:33;95050.72;;;17.00;100.00
55424;BME280;41294;42.666;23.350;2023-06-04T00:06:58;95060.03;;;17.21;100.00
55424;BME280;41294;42.666;23.350;2023-06-04T00:09:23;95062.72;;;17.27;100.00
55424;BME280;41294;42.666;23.350;2023-06-04T00:11:49;95059.00;;;17.08;100.00
55424;BME280;41294;42.666;23.350;2023-06-04T00:14:15;95065.38;;;17.21;100.00
55424;BME280;41294;42.666;23.350;2023-06-04T00:16:41;95057.94;;;17.31;100.00
55424;BME280;41294;42.666;23.350;2023-06-04T00:19:07;95054.59;;;17.41;100.00
55424;BME280;41294;42.666;23.350;2023-06-04T00:21:33;95058.75;;;17.53;100.00
55424;BME280;41294;42.666;23.350;2023-06-04T00:23:59;95058.53;;;17.62;100.00
55424;BME280;41294;42.666;23.350;2023-06-04T00:26:25;95065.47;;;17.32;100.00
55424;BME280;41294;42.666;23.350;2023-06-04T00:28:51;95058.31;;;17.18;100.00
55424;BME280;41294;42.666;23.350;2023-06-04T00:31:16;95058.63;;;17.26;100.00
55424;BME280;41294;42.666;23.350;2023-06-04T00:33:41;95055.03;;;17.29;100.00
55424;BME280;41294;42.666;23.350;2023-06-04T00:36:07;95046.09;;;17.37;100.00
55424;BME280;41294;42.666;23.350;2023-06-04T00:38:33;95050.50;;;17.51;100.00
55424;BME280;41294;42.666;23.350;2023-06-04T00:40:58;95051.84;;;17.25;100.00
55424;BME280;41294;42.666;23.350;2023-06-04T00:43:24;95050.84;;;17.22;100.00
55424;BME280;41294;42.666;23.350;2023-06-04T00:45:53;95055.03;;;16.92;100.00
55424;BME280;41294;42.666;23.350;2023-06-04T00:48:19;95045.00;;;16.71;100.00
55424;BME280;41294;42.666;23.350;2023-06-04T00:50:47;95047.44;;;16.74;100.00
55424;BME280;41294;42.666;23.350;2023-06-04T00:53:12;95041.94;;;16.83;100.00
55424;BME280;41294;42.666;23.350;2023-06-04T00:55:38;95052.00;;;16.68;100.00
55424;BME280;41294;42.666;23.350;2023-06-04T00:58:03;95046.28;;;16.50;100.00
55424;BME280;41294;42.666;23.350;2023-06-04T01:00:30;95052.13;;;16.54;100.00
55424;BME280;41294;42.666;23.350;2023-06-04T01:02:57;95053.63;;;16.30;100.00
55424;BME280;41294;42.666;23.350;2023-06-04T01:05:40;95045.94;;;16.37;100.00
55424;BME280;41294;42.666;23.350;2023-06-04T01:08:08;95055.06;;;16.31;100.00
55424;BME280;41294;42.666;23.350;2023-06-04T01:10:34;95055.47;;;16.24;100.00
55424;BME280;41294;42.666;23.350;2023-06-04T01:13:00;95048.22;;;16.24;100.00
55424;BME280;41294;42.666;23.350;2023-06-04T01:15:26;95048.97;;;16.25;100.00
55424;BME280;41294;42.666;23.350;2023-06-04T01:17:54;95044.94;;;16.29;100.00
55424;BME280;41294;42.666;23.350;2023-06-04T01:21:06;95046.00;;;16.43;100.00
55424;BME280;41294;42.666;23.350;2023-06-04T01:23:31;95048.56;;;16.32;100.00
55424;BME280;41294;42.666;23.350;2023-06-04T01:26:04;95047.38;;;16.33;100.00
55424;BME280;41294;42.666;23.350;2023-06-04T01:28:32;95046.50;;;16.47;100.00
55424;BME280;41294;42.666;23.350;2023-06-04T01:30:59;95046.22;;;16.39;100.00
55424;BME280;41294;42.666;23.350;2023-06-04T01:33:27;95051.66;;;16.55;100.00
55424;BME280;41294;42.666;23.350;2023-06-04T01:35:53;95058.03;;;16.38;100.00
55424;BME280;41294;42.666;23.350;2023-06-04T01:38:19;95058.00;;;16.33;100.00
55424;BME280;41294;42.666;23.350;2023-06-04T01:40:45;95059.47;;;16.34;100.00
55424;BME280;41294;42.666;23.350;2023-06-04T01:43:11;95065.81;;;16.42;100.00
55424;BME280;41294;42.666;23.350;2023-06-04T01:45:36;95066.72;;;16.39;100.00
55424;BME280;41294;42.666;23.350;2023-06-04T01:48:03;95060.91;;;16.35;100.00
55424;BME280;41294;42.666;23.350;2023-06-04T01:50:28;95065.22;;;16.32;100.00
55424;BME280;41294;42.666;23.350;2023-06-04T01:52:54;95071.44;;;16.49;100.00
55424;BME280;41294;42.666;23.350;2023-06-04T01:55:19;95074.09;;;16.54;100.00
55424;BME280;41294;42.666;23.350;2023-06-04T01:57:46;95069.91;;;16.43;100.00
55424;BME280;41294;42.666;23.350;2023-06-04T02:00:13;95069.13;;;16.37;100.00
55424;BME280;41294;42.666;23.350;2023-06-04T02:02:40;95078.91;;;16.50;100.00
55424;BME280;41294;42.666;23.350;2023-06-04T02:05:07;95064.88;;;16.45;100.00
55424;BME280;41294;42.666;23.350;2023-06-04T02:07:37;95070.38;;;16.16;100.00
55424;BME280;41294;42.666;23.350;2023-06-04T02:10:11;95077.56;;;16.10;100.00
55424;BME280;41294;42.666;23.350;2023-06-04T02:12:38;95075.38;;;16.08;100.00
55424;BME280;41294;42.666;23.350;2023-06-04T02:15:04;95070.28;;;16.05;100.00
55424;BME280;41294;42.666;23.350;2023-06-04T02:17:30;95074.31;;;16.00;100.00
55424;BME280;41294;42.666;23.350;2023-06-04T02:19:58;95077.06;;;16.31;100.00
55424;BME280;41294;42.666;23.350;2023-06-04T02:22:25;95081.25;;;16.43;100.00
55424;BME280;41294;42.666;23.350;2023-06-04T02:24:51;95089.44;;;16.40;100.00
55424;BME280;41294;42.666;23.350;2023-06-04T02:27:17;95086.28;;;16.36;100.00
55424;BME280;41294;42.666;23.350;2023-06-04T02:29:42;95098.13;;;16.35;100.00
55424;BME280;41294;42.666;23.350;2023-06-04T02:32:08;95093.91;;;16.28;100.00
55424;BME280;41294;42.666;23.350;2023-06-04T02:34:34;95093.47;;;16.30;100.00
55424;BME280;41294;42.666;23.350;2023-06-04T02:37:00;95105.81;;;16.33;100.00
55424;BME280;41294;42.666;23.350;2023-06-04T02:39:26;95101.06;;;16.42;100.00
55424;BME280;41294;42.666;23.350;2023-06-04T02:41:51;95103.44;;;16.35;100.00
55424;BME280;41294;42.666;23.350;2023-06-04T02:44:17;95108.97;;;16.37;100.00
55424;BME280;41294;42.666;23.350;2023-06-04T02:46:43;95108.81;;;16.46;100.00
55424;BME280;41294;42.666;23.350;2023-06-04T02:49:09;95112.53;;;16.53;100.00
55424;BME280;41294;42.666;23.350;2023-06-04T02:51:34;95113.00;;;16.52;100.00
55424;BME280;41294;42.666;23.350;2023-06-04T02:54:00;95112.69;;;16.45;100.00
55424;BME280;41294;42.666;23.350;2023-06-04T02:56:25;95117.16;;;16.33;100.00
55424;BME280;41294;42.666;23.350;2023-06-04T02:58:52;95115.81;;;16.43;100.00
55424;BME280;41294;42.666;23.350;2023-06-04T03:01:21;95118.13;;;16.61;100.00
55424;BME280;41294;42.666;23.350;2023-06-04T03:03:47;95119.91;;;16.69;100.00
55424;BME280;41294;42.666;23.350;2023-06-04T03:06:13;95120.28;;;16.57;100.00
55424;BME280;41294;42.666;23.350;2023-06-04T03:08:40;95119.13;;;16.63;100.00
55424;BME280;41294;42.666;23.350;2023-06-04T03:11:05;95128.16;;;16.77;100.00
55424;BME280;41294;42.666;23.350;2023-06-04T03:13:31;95124.09;;;16.76;100.00
55424;BME280;41294;42.666;23.350;2023-06-04T03:15:56;95129.53;;;16.61;100.00
55424;BME280;41294;42.666;23.350;2023-06-04T03:18:25;95121.00;;;16.32;100.00
55424;BME280;41294;42.666;23.350;2023-06-04T03:20:51;95128.94;;;16.27;100.00
55424;BME280;41294;42.666;23.350;2023-06-04T03:23:18;95120.78;;;16.30;100.00
55424;BME280;41294;42.666;23.350;2023-06-04T03:25:43;95122.78;;;16.41;100.00
55424;BME280;41294;42.666;23.350;2023-06-04T03:28:09;95130.44;;;16.33;100.00
55424;BME280;41294;42.666;23.350;2023-06-04T03:30:34;95132.06;;;16.50;100.00
55424;BME280;41294;42.666;23.350;2023-06-04T03:33:00;95130.41;;;16.53;100.00
55424;BME280;41294;42.666;23.350;2023-06-04T03:35:25;95137.13;;;16.48;100.00
55424;BME280;41294;42.666;23.350;2023-06-04T03:37:51;95139.00;;;16.43;100.00
55424;BME280;41294;42.666;23.350;2023-06-04T03:40:16;95137.06;;;16.43;100.00
55424;BME280;41294;42.666;23.350;2023-06-04T03:42:42;95149.06;;;16.58;100.00
55424;BME280;41294;42.666;23.350;2023-06-04T03:45:08;95145.88;;;16.54;100.00
55424;BME280;41294;42.666;23.350;2023-06-04T03:47:33;95148.19;;;16.42;100.00
55424;BME280;41294;42.666;23.350;2023-06-04T03:49:58;95148.25;;;16.27;100.00
55424;BME280;41294;42.666;23.350;2023-06-04T03:52:24;95154.97;;;16.23;100.00
55424;BME280;41294;42.666;23.350;2023-06-04T03:54:49;95154.84;;;16.32;100.00
55424;BME280;41294;42.666;23.350;2023-06-04T03:57:15;95151.25;;;16.35;100.00
55424;BME280;41294;42.666;23.350;2023-06-04T03:59:40;95162.28;;;16.28;100.00
55424;BME280;41294;42.666;23.350;2023-06-04T04:02:05;95150.41;;;16.29;100.00
55424;BME280;41294;42.666;23.350;2023-06-04T04:04:31;95154.56;;;16.30;100.00
55424;BME280;41294;42.666;23.350;2023-06-04T04:06:58;95160.94;;;16.38;100.00
55424;BME280;41294;42.666;23.350;2023-06-04T04:09:25;95161.72;;;16.44;100.00
55424;BME280;41294;42.666;23.350;2023-06-04T04:11:51;95159.38;;;16.51;100.00
55424;BME280;41294;42.666;23.350;2023-06-04T04:14:16;95162.03;;;16.51;100.00
55424;BME280;41294;42.666;23.350;2023-06-04T04:16:41;95156.78;;;16.31;100.00
55424;BME280;41294;42.666;23.350;2023-06-04T04:19:07;95161.34;;;16.31;100.00
55424;BME280;41294;42.666;23.350;2023-06-04T04:21:36;95169.22;;;16.25;100.00
55424;BME280;41294;42.666;23.350;2023-06-04T04:24:03;95174.34;;;16.29;100.00
55424;BME280;41294;42.666;23.350;2023-06-04T04:26:28;95172.09;;;16.42;100.00
55424;BME280;41294;42.666;23.350;2023-06-04T04:28:55;95168.69;;;16.41;100.00
55424;BME280;41294;42.666;23.350;2023-06-04T04:31:27;95170.09;;;16.37;100.00
55424;BME280;41294;42.666;23.350;2023-06-04T04:33:54;95175.28;;;16.26;100.00
55424;BME280;41294;42.666;23.350;2023-06-04T04:36:20;95171.44;;;16.27;100.00
55424;BME280;41294;42.666;23.350;2023-06-04T04:38:45;95176.81;;;16.32;100.00
55424;BME280;41294;42.666;23.350;2023-06-04T04:41:11;95177.81;;;16.15;100.00
55424;BME280;41294;42.666;23.350;2023-06-04T04:43:37;95169.03;;;16.29;100.00
55424;BME280;41294;42.666;23.350;2023-06-04T04:46:06;95172.41;;;16.49;100.00
55424;BME280;41294;42.666;23.350;2023-06-04T04:48:31;95170.38;;;16.64;100.00
55424;BME280;41294;42.666;23.350;2023-06-04T04:50:57;95170.31;;;16.58;100.00
55424;BME280;41294;42.666;23.350;2023-06-04T04:53:23;95166.47;;;16.59;100.00
55424;BME280;41294;42.666;23.350;2023-06-04T04:55:48;95169.06;;;16.54;100.00
55424;BME280;41294;42.666;23.350;2023-06-04T04:58:14;95170.72;;;16.77;100.00
55424;BME280;41294;42.666;23.350;2023-06-04T05:00:41;95185.84;;;16.65;100.00
55424;BME280;41294;42.666;23.350;2023-06-04T05:03:07;95169.91;;;16.65;100.00
55424;BME280;41294;42.666;23.350;2023-06-04T05:05:33;95176.63;;;16.86;100.00
55424;BME280;41294;42.666;23.350;2023-06-04T05:07:59;95176.44;;;16.95;100.00
55424;BME280;41294;42.666;23.350;2023-06-04T05:10:24;95179.88;;;17.01;100.00
55424;BME280;41294;42.666;23.350;2023-06-04T05:12:55;95171.41;;;17.03;100.00
55424;BME280;41294;42.666;23.350;2023-06-04T05:15:21;95185.31;;;17.18;100.00
55424;BME280;41294;42.666;23.350;2023-06-04T05:17:47;95183.63;;;17.20;100.00
55424;BME280;41294;42.666;23.350;2023-06-04T05:20:14;95181.31;;;17.02;100.00
55424;BME280;41294;42.666;23.350;2023-06-04T05:22:41;95186.56;;;17.22;100.00
55424;BME280;41294;42.666;23.350;2023-06-04T05:25:08;95188.09;;;17.03;100.00
55424;BME280;41294;42.666;23.350;2023-06-04T05:27:35;95186.88;;;16.99;100.00
55424;BME280;41294;42.666;23.350;2023-06-04T05:30:01;95181.84;;;17.06;100.00
55424;BME280;41294;42.666;23.350;2023-06-04T05:32:28;95185.75;;;17.11;100.00
55424;BME280;41294;42.666;23.350;2023-06-04T05:34:57;95186.56;;;17.22;100.00
55424;BME280;41294;42.666;23.350;2023-06-04T05:37:23;95188.31;;;17.31;100.00
55424;BME280;41294;42.666;23.350;2023-06-04T05:39:59;95189.91;;;17.17;100.00
55424;BME280;41294;42.666;23.350;2023-06-04T05:42:25;95190.28;;;17.30;100.00
55424;BME280;41294;42.666;23.350;2023-06-04T05:44:51;95192.22;;;17.35;100.00
55424;BME280;41294;42.666;23.350;2023-06-04T05:47:17;95198.69;;;17.59;100.00
55424;BME280;41294;42.666;23.350;2023-06-04T05:49:43;95200.09;;;17.55;100.00
55424;BME280;41294;42.666;23.350;2023-06-04T05:52:09;95196.50;;;17.58;100.00
55424;BME280;41294;42.666;23.350;2023-06-04T05:54:35;95208.56;;;17.53;100.00
55424;BME280;41294;42.666;23.350;2023-06-04T05:57:03;95210.50;;;17.53;100.00
55424;BME280;41294;42.666;23.350;2023-06-04T05:59:29;95208.91;;;17.72;100.00
55424;BME280;41294;42.666;23.350;2023-06-04T06:01:55;95216.59;;;17.59;100.00
55424;BME280;41294;42.666;23.350;2023-06-04T06:04:20;95214.88;;;17.56;100.00
55424;BME280;41294;42.666;23.350;2023-06-04T06:06:46;95214.94;;;17.67;100.00
55424;BME280;41294;42.666;23.350;2023-06-04T06:09:14;95219.13;;;17.79;100.00
55424;BME280;41294;42.666;23.350;2023-06-04T06:11:40;95219.69;;;17.94;100.00
55424;BME280;41294;42.666;23.350;2023-06-04T06:14:05;95235.69;;;17.94;99.60
55424;BME280;41294;42.666;23.350;2023-06-04T06:16:31;95222.16;;;18.03;98.13
55424;BME280;41294;42.666;23.350;2023-06-04T06:18:58;95234.03;;;18.02;97.73
55424;BME280;41294;42.666;23.350;2023-06-04T06:21:23;95224.31;;;17.99;98.33
55424;BME280;41294;42.666;23.350;2023-06-04T06:23:49;95226.50;;;18.06;96.99
55424;BME280;41294;42.666;23.350;2023-06-04T06:26:14;95221.19;;;18.06;97.01
55424;BME280;41294;42.666;23.350;2023-06-04T06:28:41;95224.38;;;18.15;96.55
55424;BME280;41294;42.666;23.350;2023-06-04T06:31:06;95224.34;;;18.04;96.21
55424;BME280;41294;42.666;23.350;2023-06-04T06:33:32;95215.75;;;17.84;95.76
55424;BME280;41294;42.666;23.350;2023-06-04T06:35:57;95231.16;;;17.69;96.95
55424;BME280;41294;42.666;23.350;2023-06-04T06:38:26;95235.63;;;17.83;97.12
55424;BME280;41294;42.666;23.350;2023-06-04T06:40:52;95239.31;;;17.96;95.92
55424;BME280;41294;42.666;23.350;2023-06-04T06:43:17;95231.81;;;18.00;95.88
55424;BME280;41294;42.666;23.350;2023-06-04T06:45:43;95241.63;;;17.78;95.69
55424;BME280;41294;42.666;23.350;2023-06-04T06:48:08;95229.03;;;17.73;96.85
55424;BME280;41294;42.666;23.350;2023-06-04T06:50:33;95229.63;;;17.99;96.61
55424;BME280;41294;42.666;23.350;2023-06-04T06:53:02;95234.16;;;18.29;95.37
55424;BME280;41294;42.666;23.350;2023-06-04T06:55:27;95233.31;;;18.07;95.91
55424;BME280;41294;42.666;23.350;2023-06-04T06:57:52;95237.94;;;18.12;95.38
55424;BME280;41294;42.666;23.350;2023-06-04T07:00:18;95235.91;;;17.96;95.92
55424;BME280;41294;42.666;23.350;2023-06-04T07:02:44;95235.28;;;18.12;95.04
55424;BME280;41294;42.666;23.350;2023-06-04T07:05:11;95244.03;;;18.17;94.64
55424;BME280;41294;42.666;23.350;2023-06-04T07:07:36;95230.94;;;18.19;94.02
55424;BME280;41294;42.666;23.350;2023-06-04T07:10:02;95247.88;;;18.16;94.24
55424;BME280;41294;42.666;23.350;2023-06-04T07:12:29;95241.22;;;18.37;94.78
55424;BME280;41294;42.666;23.350;2023-06-04T07:14:55;95248.78;;;18.55;92.65
55424;BME280;41294;42.666;23.350;2023-06-04T07:17:21;95250.47;;;18.58;93.13
55424;BME280;41294;42.666;23.350;2023-06-04T07:19:47;95262.81;;;18.45;92.51
55424;BME280;41294;42.666;23.350;2023-06-04T07:22:12;95257.66;;;18.30;93.57
55424;BME280;41294;42.666;23.350;2023-06-04T07:24:40;95263.78;;;18.42;93.38
55424;BME280;41294;42.666;23.350;2023-06-04T07:27:13;95261.34;;;18.44;93.20
55424;BME280;41294;42.666;23.350;2023-06-04T07:29:38;95271.78;;;18.47;94.10
55424;BME280;41294;42.666;23.350;2023-06-04T07:32:04;95262.56;;;18.48;94.37
55424;BME280;41294;42.666;23.350;2023-06-04T07:34:29;95262.81;;;18.45;95.18
55424;BME280;41294;42.666;23.350;2023-06-04T07:36:55;95267.03;;;18.73;94.02
55424;BME280;41294;42.666;23.350;2023-06-04T07:39:20;95268.25;;;18.78;94.54
55424;BME280;41294;42.666;23.350;2023-06-04T07:41:46;95271.50;;;19.31;92.18
55424;BME280;41294;42.666;23.350;2023-06-04T07:46:47;95278.91;;;18.72;94.00
55424;BME280;41294;42.666;23.350;2023-06-04T07:49:12;95281.53;;;18.61;96.05
55424;BME280;41294;42.666;23.350;2023-06-04T07:51:38;95276.50;;;18.91;94.82
55424;BME280;41294;42.666;23.350;2023-06-04T07:54:03;95286.28;;;19.15;92.66
55424;BME280;41294;42.666;23.350;2023-06-04T07:56:29;95281.22;;;19.34;92.11
55424;BME280;41294;42.666;23.350;2023-06-04T07:58:54;95280.22;;;19.37;90.90
55424;BME280;41294;42.666;23.350;2023-06-04T08:01:20;95296.50;;;19.39;91.11
55424;BME280;41294;42.666;23.350;2023-06-04T08:03:46;95287.28;;;19.40;92.52
55424;BME280;41294;42.666;23.350;2023-06-04T08:06:12;95280.94;;;19.54;92.23
55424;BME280;41294;42.666;23.350;2023-06-04T08:08:42;95280.69;;;19.74;91.52
55424;BME280;41294;42.666;23.350;2023-06-04T08:13:44;95289.94;;;19.83;90.00
55424;BME280;41294;42.666;23.350;2023-06-04T08:16:10;95279.50;;;19.80;88.51
55424;BME280;41294;42.666;23.350;2023-06-04T08:28:57;95279.69;;;19.87;87.78
55424;BME280;41294;42.666;23.350;2023-06-04T08:36:40;95292.28;;;20.20;85.99
55424;BME280;41294;42.666;23.350;2023-06-04T08:46:52;95304.03;;;19.62;88.66
55424;BME280;41294;42.666;23.350;2023-06-04T08:49:21;95307.41;;;19.63;88.80
55424;BME280;41294;42.666;23.350;2023-06-04T08:51:47;95307.91;;;19.67;88.75
55424;BME280;41294;42.666;23.350;2023-06-04T08:54:13;95315.44;;;19.79;87.13
55424;BME280;41294;42.666;23.350;2023-06-04T08:56:40;95309.59;;;19.75;87.66
55424;BME280;41294;42.666;23.350;2023-06-04T09:24:57;95321.97;;;20.05;80.58
55424;BME280;41294;42.666;23.350;2023-06-04T09:29:58;95308.63;;;21.24;76.39
55424;BME280;41294;42.666;23.350;2023-06-04T09:32:27;95316.59;;;21.35;74.94
55424;BME280;41294;42.666;23.350;2023-06-04T09:34:53;95315.03;;;21.51;74.89
55424;BME280;41294;42.666;23.350;2023-06-04T09:37:19;95322.38;;;21.79;74.40
55424;BME280;41294;42.666;23.350;2023-06-04T09:39:54;95322.06;;;21.19;74.47
55424;BME280;41294;42.666;23.350;2023-06-04T09:42:23;95312.72;;;21.31;75.28
55424;BME280;41294;42.666;23.350;2023-06-04T09:44:49;95314.56;;;21.47;75.23
55424;BME280;41294;42.666;23.350;2023-06-04T09:47:15;95313.47;;;21.95;73.10
55424;BME280;41294;42.666;23.350;2023-06-04T09:49:46;95308.09;;;22.19;72.35
55424;BME280;41294;42.666;23.350;2023-06-04T09:52:12;95316.09;;;22.25;72.06
55424;BME280;41294;42.666;23.350;2023-06-04T09:54:44;95313.19;;;21.35;75.15
55424;BME280;41294;42.666;23.350;2023-06-04T09:57:21;95309.13;;;21.87;73.56
55424;BME280;41294;42.666;23.350;2023-06-04T09:59:52;95311.31;;;21.59;73.26
55424;BME280;41294;42.666;23.350;2023-06-04T10:02:20;95302.88;;;21.09;75.97
55424;BME280;41294;42.666;23.350;2023-06-04T10:04:56;95321.78;;;20.71;76.63
55424;BME280;41294;42.666;23.350;2023-06-04T10:07:25;95309.63;;;21.21;76.45
55424;BME280;41294;42.666;23.350;2023-06-04T10:09:52;95317.81;;;20.94;77.34
55424;BME280;41294;42.666;23.350;2023-06-04T10:12:26;95301.56;;;21.27;75.72
55424;BME280;41294;42.666;23.350;2023-06-04T10:14:56;95296.25;;;22.09;72.26
55424;BME280;41294;42.666;23.350;2023-06-04T10:17:23;95300.75;;;21.96;72.40
55424;BME280;41294;42.666;23.350;2023-06-04T10:19:53;95289.78;;;22.47;70.75
55424;BME280;41294;42.666;23.350;2023-06-04T10:22:23;95304.84;;;22.02;71.64
55424;BME280;41294;42.666;23.350;2023-06-04T10:24:50;95296.38;;;22.46;71.11
55424;BME280;41294;42.666;23.350;2023-06-04T10:27:19;95297.81;;;22.23;71.29
55424;BME280;41294;42.666;23.350;2023-06-04T10:29:46;95301.97;;;22.66;70.44
55424;BME280;41294;42.666;23.350;2023-06-04T10:32:11;95309.41;;;23.34;66.65
55424;BME280;41294;42.666;23.350;2023-06-04T10:34:37;95293.94;;;22.85;68.45
55424;BME280;41294;42.666;23.350;2023-06-04T10:37:04;95295.41;;;22.86;69.38
55424;BME280;41294;42.666;23.350;2023-06-04T10:39:32;95291.50;;;23.05;67.87
55424;BME280;41294;42.666;23.350;2023-06-04T10:42:02;95299.00;;;23.43;65.44
55424;BME280;41294;42.666;23.350;2023-06-04T10:49:35;95294.56;;;22.54;68.87
55424;BME280;41294;42.666;23.350;2023-06-04T10:52:10;95299.41;;;22.37;69.04
55424;BME280;41294;42.666;23.350;2023-06-04T10:54:45;95291.88;;;21.82;71.23
55424;BME280;41294;42.666;23.350;2023-06-04T11:00:00;95290.59;;;21.89;69.98
55424;BME280;41294;42.666;23.350;2023-06-04T11:02:26;95294.06;;;22.08;71.10
55424;BME280;41294;42.666;23.350;2023-06-04T11:05:05;95286.69;;;22.14;72.11
55424;BME280;41294;42.666;23.350;2023-06-04T11:07:46;95287.88;;;22.42;69.60
55424;BME280;41294;42.666;23.350;2023-06-04T11:10:16;95285.97;;;22.37;70.60
55424;BME280;41294;42.666;23.350;2023-06-04T11:12:50;95285.75;;;23.14;68.38
55424;BME280;41294;42.666;23.350;2023-06-04T11:15:16;95284.94;;;23.50;67.00
55424;BME280;41294;42.666;23.350;2023-06-04T11:17:52;95288.47;;;23.45;65.78
55424;BME280;41294;42.666;23.350;2023-06-04T11:20:20;95285.47;;;23.18;67.93
55424;BME280;41294;42.666;23.350;2023-06-04T11:23:06;95294.63;;;23.40;66.48
55424;BME280;41294;42.666;23.350;2023-06-04T11:25:32;95295.47;;;22.99;66.88
55424;BME280;41294;42.666;23.350;2023-06-04T11:28:04;95290.25;;;23.06;67.75
55424;BME280;41294;42.666;23.350;2023-06-04T11:30:30;95286.28;;;22.34;69.79
55424;BME280;41294;42.666;23.350;2023-06-04T11:33:03;95283.13;;;22.72;68.75
55424;BME280;41294;42.666;23.350;2023-06-04T11:35:40;95296.56;;;22.00;70.91
55424;BME280;41294;42.666;23.350;2023-06-04T11:38:07;95285.03;;;22.11;71.57
55424;BME280;41294;42.666;23.350;2023-06-04T11:40:33;95287.03;;;22.29;69.75
55424;BME280;41294;42.666;23.350;2023-06-04T11:43:10;95297.59;;;22.21;70.42
55424;BME280;41294;42.666;23.350;2023-06-04T11:45:37;95281.59;;;21.62;72.81
55424;BME280;41294;42.666;23.350;2023-06-04T11:48:04;95288.75;;;22.02;72.12
55424;BME280;41294;42.666;23.350;2023-06-04T11:50:30;95284.75;;;22.14;71.33
55424;BME280;41294;42.666;23.350;2023-06-04T11:52:58;95284.75;;;22.14;70.67
55424;BME280;41294;42.666;23.350;2023-06-04T11:55:25;95281.16;;;21.82;71.03
55424;BME280;41294;42.666;23.350;2023-06-04T11:57:51;95291.34;;;22.13;70.69
55424;BME280;41294;42.666;23.350;2023-06-04T12:00:17;95292.00;;;21.71;72.43
55424;BME280;41294;42.666;23.350;2023-06-04T12:05:15;95293.91;;;21.42;74.42
55424;BME280;41294;42.666;23.350;2023-06-04T12:07:41;95283.19;;;21.07;75.77
55424;BME280;41294;42.666;23.350;2023-06-04T12:10:09;95291.50;;;21.38;75.42
55424;BME280;41294;42.666;23.350;2023-06-04T12:12:37;95300.94;;;21.10;75.61
55424;BME280;41294;42.666;23.350;2023-06-04T12:15:03;95298.72;;;21.14;75.64
55424;BME280;41294;42.666;23.350;2023-06-04T12:17:31;95304.53;;;21.18;75.16
55424;BME280;41294;42.666;23.350;2023-06-04T12:19:56;95291.88;;;21.18;75.68
55424;BME280;41294;42.666;23.350;2023-06-04T12:22:27;95295.91;;;21.36;74.71
55424;BME280;41294;42.666;23.350;2023-06-04T12:24:54;95295.72;;;21.23;75.86
55424;BME280;41294;42.666;23.350;2023-06-04T12:27:25;95298.63;;;21.65;74.12
55424;BME280;41294;42.666;23.350;2023-06-04T12:30:00;95306.31;;;21.45;74.42
55424;BME280;41294;42.666;23.350;2023-06-04T12:32:26;95294.06;;;20.68;77.08
55424;BME280;41294;42.666;23.350;2023-06-04T12:34:52;95298.91;;;20.81;77.25
55424;BME280;41294;42.666;23.350;2023-06-04T12:37:17;95310.22;;;21.03;76.82
55424;BME280;41294;42.666;23.350;2023-06-04T12:39:44;95293.97;;;20.90;77.78
55424;BME280;41294;42.666;23.350;2023-06-04T12:42:10;95287.72;;;21.17;76.98
55424;BME280;41294;42.666;23.350;2023-06-04T12:44:37;95284.34;;;21.17;76.66
55424;BME280;41294;42.666;23.350;2023-06-04T12:47:03;95295.59;;;21.10;76.51
55424;BME280;41294;42.666;23.350;2023-06-04T12:49:29;95298.69;;;21.19;75.89
55424;BME280;41294;42.666;23.350;2023-06-04T12:51:55;95306.59;;;21.01;76.97
55424;BME280;41294;42.666;23.350;2023-06-04T12:54:20;95296.38;;;20.94;77.13
55424;BME280;41294;42.666;23.350;2023-06-04T12:56:45;95295.13;;;21.06;76.58
55424;BME280;41294;42.666;23.350;2023-06-04T12:59:11;95302.00;;;20.90;76.77
55424;BME280;41294;42.666;23.350;2023-06-04T13:01:36;95297.16;;;20.89;76.61
55424;BME280;41294;42.666;23.350;2023-06-04T13:04:05;95297.72;;;20.76;77.78
55424;BME280;41294;42.666;23.350;2023-06-04T13:06:31;95295.50;;;20.75;77.85
55424;BME280;41294;42.666;23.350;2023-06-04T13:08:56;95301.75;;;20.94;76.90
55424;BME280;41294;42.666;23.350;2023-06-04T13:11:22;95302.75;;;20.91;76.23
55424;BME280;41294;42.666;23.350;2023-06-04T13:13:48;95300.47;;;21.06;76.05
55424;BME280;41294;42.666;23.350;2023-06-04T13:16:13;95297.06;;;21.05;76.20
55424;BME280;41294;42.666;23.350;2023-06-04T13:18:39;95294.47;;;21.29;76.11
55424;BME280;41294;42.666;23.350;2023-06-04T13:21:04;95283.59;;;21.16;74.97
55424;BME280;41294;42.666;23.350;2023-06-04T13:23:30;95289.22;;;21.13;74.92
55424;BME280;41294;42.666;23.350;2023-06-04T13:25:55;95290.97;;;21.05;75.56
55424;BME280;41294;42.666;23.350;2023-06-04T13:28:20;95291.44;;;21.09;75.46
55424;BME280;41294;42.666;23.350;2023-06-04T13:30:46;95287.97;;;21.19;74.93
55424;BME280;41294;42.666;23.350;2023-06-04T13:33:12;95286.84;;;21.04;75.79
55424;BME280;41294;42.666;23.350;2023-06-04T13:35:37;95283.56;;;21.22;75.50
55424;BME280;41294;42.666;23.350;2023-06-04T13:38:04;95290.09;;;21.26;74.32
55424;BME280;41294;42.666;23.350;2023-06-04T13:40:31;95274.84;;;21.16;75.14
55424;BME280;41294;42.666;23.350;2023-06-04T13:42:57;95279.50;;;21.45;74.45
55424;BME280;41294;42.666;23.350;2023-06-04T13:45:23;95301.53;;;21.67;73.15
55424;BME280;41294;42.666;23.350;2023-06-04T13:47:48;95290.16;;;21.55;72.65
55424;BME280;41294;42.666;23.350;2023-06-04T13:50:14;95292.81;;;21.21;73.90
55424;BME280;41294;42.666;23.350;2023-06-04T13:52:40;95289.16;;;21.24;73.91